createdAt,value
2017-09-13T00:00:22.220Z,0
2017-09-13T00:01:22.236Z,0
2017-09-13T00:02:21.931Z,0
2017-09-13T00:03:22.366Z,0
2017-09-13T00:04:21.641Z,0
2017-09-13T00:05:22.539Z,0
2017-09-13T00:06:22.531Z,0
2017-09-13T00:07:22.019Z,0
2017-09-13T00:08:22.780Z,0
2017-09-13T00:09:22.858Z,0
2017-09-13T00:10:22.102Z,0
2017-09-13T00:11:22.509Z,0
2017-09-13T00:12:22.207Z,0
2017-09-13T00:13:22.558Z,0
2017-09-13T00:14:22.169Z,0
2017-09-13T00:15:22.500Z,0
2017-09-13T00:16:22.518Z,0
2017-09-13T00:17:22.903Z,0
2017-09-13T00:18:22.232Z,0
2017-09-13T00:19:22.256Z,0
2017-09-13T00:20:22.597Z,0
2017-09-13T00:21:22.307Z,0
2017-09-13T00:22:22.957Z,0
2017-09-13T00:23:22.860Z,0
2017-09-13T00:24:22.994Z,0
2017-09-13T00:25:23.444Z,0
2017-09-13T00:26:23.235Z,0
2017-09-13T00:27:22.582Z,0
2017-09-13T00:28:22.600Z,0
2017-09-13T00:29:22.922Z,0
2017-09-13T00:30:22.926Z,0
2017-09-13T00:31:22.460Z,0
2017-09-13T00:32:22.818Z,0
2017-09-13T00:33:22.978Z,0
2017-09-13T00:34:22.313Z,0
2017-09-13T00:35:23.198Z,0
2017-09-13T00:36:22.328Z,0
2017-09-13T00:37:22.999Z,0
2017-09-13T00:38:23.256Z,0
2017-09-13T00:39:22.751Z,0
2017-09-13T00:40:22.975Z,0
2017-09-13T00:41:22.992Z,0
2017-09-13T00:42:23.098Z,0
2017-09-13T00:43:23.025Z,0
2017-09-13T00:44:22.721Z,0
2017-09-13T00:45:22.753Z,0
2017-09-13T00:46:23.081Z,0
2017-09-13T00:47:22.770Z,0
2017-09-13T00:48:22.797Z,0
2017-09-13T00:49:23.147Z,0
2017-09-13T00:50:22.835Z,0
2017-09-13T00:51:22.855Z,0
2017-09-13T00:52:22.676Z,0
2017-09-13T00:53:22.567Z,0
2017-09-13T00:54:23.231Z,0
2017-09-13T00:55:23.381Z,0
2017-09-13T00:56:23.593Z,0
2017-09-13T00:57:23.623Z,0
2017-09-13T00:58:23.321Z,0
2017-09-13T00:59:23.450Z,0
2017-09-13T01:00:22.699Z,0
2017-09-13T01:01:23.095Z,0
2017-09-13T01:02:22.739Z,0
2017-09-13T01:03:23.220Z,0
2017-09-13T01:04:23.110Z,0
2017-09-13T01:05:23.531Z,0
2017-09-13T01:06:22.835Z,0
2017-09-13T01:07:23.477Z,0
2017-09-13T01:08:23.825Z,0
2017-09-13T01:09:23.831Z,0
2017-09-13T01:10:23.542Z,0
2017-09-13T01:11:23.643Z,0
2017-09-13T01:12:24.099Z,0
2017-09-13T01:13:23.921Z,0
2017-09-13T01:14:23.926Z,0
2017-09-13T01:15:23.644Z,0
2017-09-13T01:16:23.743Z,0
2017-09-13T01:17:23.844Z,0
2017-09-13T01:18:23.198Z,0
2017-09-13T01:19:23.397Z,0
2017-09-13T01:20:23.712Z,0
2017-09-13T01:21:23.779Z,0
2017-09-13T01:22:23.762Z,0
2017-09-13T01:23:24.094Z,0
2017-09-13T01:24:23.575Z,0
2017-09-13T01:25:24.277Z,0
2017-09-13T01:26:23.253Z,0
2017-09-13T01:27:24.187Z,0
2017-09-13T01:28:23.611Z,0
2017-09-13T01:29:23.906Z,0
2017-09-13T01:30:24.312Z,0
2017-09-13T01:31:24.343Z,0
2017-09-13T01:32:24.383Z,0
2017-09-13T01:33:23.664Z,0
2017-09-13T01:34:23.329Z,0
2017-09-13T01:35:23.672Z,0
2017-09-13T01:36:24.025Z,0
2017-09-13T01:37:24.054Z,0
2017-09-13T01:38:24.388Z,0
2017-09-13T01:39:24.083Z,0
2017-09-13T01:40:24.088Z,0
2017-09-13T01:41:23.781Z,0
2017-09-13T01:42:24.451Z,0
2017-09-13T01:43:24.796Z,0
2017-09-13T01:44:23.846Z,0
2017-09-13T01:45:24.181Z,0
2017-09-13T01:46:23.906Z,0
2017-09-13T01:47:24.239Z,0
2017-09-13T01:48:24.229Z,0
2017-09-13T01:49:24.266Z,0
2017-09-13T01:50:24.278Z,0
2017-09-13T01:51:24.298Z,0
2017-09-13T01:52:24.314Z,0
2017-09-13T01:53:24.679Z,0
2017-09-13T01:54:24.026Z,0
2017-09-13T01:55:24.767Z,0
2017-09-13T01:56:24.379Z,0
2017-09-13T01:57:24.399Z,0
2017-09-13T01:58:24.095Z,0
2017-09-13T01:59:24.441Z,0
2017-09-13T02:00:24.159Z,0
2017-09-13T02:01:24.810Z,0
2017-09-13T02:02:24.530Z,0
2017-09-13T02:03:24.222Z,0
2017-09-13T02:04:24.211Z,0
2017-09-13T02:05:24.549Z,0
2017-09-13T02:06:24.576Z,0
2017-09-13T02:07:24.912Z,0
2017-09-13T02:08:24.939Z,0
2017-09-13T02:09:24.627Z,0
2017-09-13T02:10:24.963Z,0
2017-09-13T02:11:24.349Z,0
2017-09-13T02:12:24.362Z,0
2017-09-13T02:13:25.020Z,0
2017-09-13T02:14:24.397Z,0
2017-09-13T02:15:24.414Z,0
2017-09-13T02:16:24.458Z,0
2017-09-13T02:17:25.092Z,0
2017-09-13T02:18:24.476Z,0
2017-09-13T02:19:24.568Z,0
2017-09-13T02:20:25.161Z,0
2017-09-13T02:21:25.161Z,0
2017-09-13T02:22:24.860Z,0
2017-09-13T02:23:24.593Z,0
2017-09-13T02:24:24.585Z,0
2017-09-13T02:25:24.831Z,0
2017-09-13T02:26:25.275Z,0
2017-09-13T02:27:25.280Z,0
2017-09-13T02:28:24.979Z,0
2017-09-13T02:29:24.668Z,0
2017-09-13T02:30:24.364Z,0
2017-09-13T02:31:24.385Z,0
2017-09-13T02:32:24.725Z,0
2017-09-13T02:33:24.442Z,0
2017-09-13T02:34:25.085Z,0
2017-09-13T02:35:24.780Z,0
2017-09-13T02:36:24.793Z,0
2017-09-13T02:37:25.599Z,0
2017-09-13T02:38:24.857Z,0
2017-09-13T02:39:24.876Z,0
2017-09-13T02:40:24.550Z,0
2017-09-13T02:41:24.887Z,0
2017-09-13T02:42:25.233Z,0
2017-09-13T02:43:24.929Z,0
2017-09-13T02:44:25.285Z,0
2017-09-13T02:45:24.972Z,0
2017-09-13T02:46:25.648Z,0
2017-09-13T02:47:25.030Z,0
2017-09-13T02:48:25.014Z,0
2017-09-13T02:49:25.361Z,0
2017-09-13T02:50:25.707Z,0
2017-09-13T02:51:25.075Z,0
2017-09-13T02:52:25.426Z,0
2017-09-13T02:53:25.112Z,0
2017-09-13T02:54:25.280Z,0
2017-09-13T02:55:25.232Z,0
2017-09-13T02:56:25.425Z,0
2017-09-13T02:57:25.187Z,0
2017-09-13T02:58:25.378Z,0
2017-09-13T02:59:25.216Z,0
2017-09-13T03:00:25.234Z,0
2017-09-13T03:01:25.000Z,0
2017-09-13T03:02:24.945Z,0
2017-09-13T03:03:25.296Z,0
2017-09-13T03:04:25.798Z,0
2017-09-13T03:05:25.327Z,0
2017-09-13T03:06:25.347Z,0
2017-09-13T03:07:25.935Z,0
2017-09-13T03:08:25.719Z,0
2017-09-13T03:09:25.684Z,0
2017-09-13T03:10:25.414Z,0
2017-09-13T03:11:25.441Z,0
2017-09-13T03:12:25.463Z,0
2017-09-13T03:13:25.793Z,0
2017-09-13T03:14:25.496Z,0
2017-09-13T03:15:26.256Z,0
2017-09-13T03:16:25.530Z,0
2017-09-13T03:17:25.867Z,0
2017-09-13T03:18:25.893Z,0
2017-09-13T03:19:25.591Z,0
2017-09-13T03:20:25.609Z,0
2017-09-13T03:21:26.245Z,0
2017-09-13T03:22:25.964Z,0
2017-09-13T03:23:25.651Z,0
2017-09-13T03:24:26.001Z,0
2017-09-13T03:25:26.176Z,0
2017-09-13T03:26:26.029Z,0
2017-09-13T03:27:26.062Z,0
2017-09-13T03:28:25.548Z,0
2017-09-13T03:29:26.090Z,0
2017-09-13T03:30:26.119Z,0
2017-09-13T03:31:26.132Z,0
2017-09-13T03:32:25.823Z,0
2017-09-13T03:33:26.501Z,0
2017-09-13T03:34:25.857Z,0
2017-09-13T03:35:26.388Z,0
2017-09-13T03:36:26.218Z,0
2017-09-13T03:37:25.912Z,0
2017-09-13T03:38:25.979Z,0
2017-09-13T03:39:26.287Z,0
2017-09-13T03:40:26.389Z,0
2017-09-13T03:41:25.713Z,0
2017-09-13T03:42:26.011Z,0
2017-09-13T03:43:26.121Z,0
2017-09-13T03:44:26.370Z,0
2017-09-13T03:45:26.514Z,0
2017-09-13T03:46:25.858Z,0
2017-09-13T03:47:26.350Z,0
2017-09-13T03:48:26.664Z,0
2017-09-13T03:49:26.595Z,0
2017-09-13T03:50:26.998Z,0
2017-09-13T03:51:27.041Z,0
2017-09-13T03:52:26.640Z,0
2017-09-13T03:53:26.657Z,0
2017-09-13T03:54:26.194Z,0
2017-09-13T03:55:26.325Z,0
2017-09-13T03:56:26.730Z,0
2017-09-13T03:57:26.599Z,0
2017-09-13T03:58:26.752Z,0
2017-09-13T03:59:26.739Z,0
2017-09-13T04:00:26.985Z,0
2017-09-13T04:01:26.676Z,0
2017-09-13T04:02:26.459Z,0
2017-09-13T04:03:26.745Z,0
2017-09-13T04:04:26.544Z,0
2017-09-13T04:05:27.191Z,0
2017-09-13T04:06:26.884Z,0
2017-09-13T04:07:26.582Z,0
2017-09-13T04:08:26.579Z,0
2017-09-13T04:09:26.174Z,0
2017-09-13T04:10:26.733Z,0
2017-09-13T04:11:26.739Z,0
2017-09-13T04:12:26.231Z,0
2017-09-13T04:13:27.071Z,0
2017-09-13T04:14:26.954Z,0
2017-09-13T04:15:27.278Z,0
2017-09-13T04:16:26.951Z,0
2017-09-13T04:17:26.637Z,0
2017-09-13T04:18:26.651Z,0
2017-09-13T04:19:27.040Z,0
2017-09-13T04:20:27.018Z,0
2017-09-13T04:21:27.125Z,0
2017-09-13T04:22:26.742Z,0
2017-09-13T04:23:26.752Z,0
2017-09-13T04:24:27.196Z,0
2017-09-13T04:25:27.680Z,0
2017-09-13T04:26:26.954Z,4
2017-09-13T04:27:26.521Z,4
2017-09-13T04:28:27.169Z,0
2017-09-13T04:29:26.532Z,4
2017-09-13T04:30:27.208Z,0
2017-09-13T04:31:27.546Z,4
2017-09-13T04:32:27.242Z,4
2017-09-13T04:33:27.256Z,8
2017-09-13T04:34:27.269Z,8
2017-09-13T04:35:26.657Z,4
2017-09-13T04:36:26.982Z,12
2017-09-13T04:37:27.324Z,12
2017-09-13T04:38:27.348Z,16
2017-09-13T04:39:27.037Z,16
2017-09-13T04:40:27.387Z,16
2017-09-13T04:41:26.751Z,16
2017-09-13T04:42:27.100Z,16
2017-09-13T04:43:27.768Z,20
2017-09-13T04:44:27.469Z,24
2017-09-13T04:45:27.159Z,20
2017-09-13T04:46:27.161Z,28
2017-09-13T04:47:27.189Z,28
2017-09-13T04:48:27.561Z,32
2017-09-13T04:49:27.235Z,36
2017-09-13T04:50:27.561Z,40
2017-09-13T04:51:27.579Z,48
2017-09-13T04:52:27.282Z,56
2017-09-13T04:53:27.296Z,56
2017-09-13T04:54:27.635Z,52
2017-09-13T04:55:27.659Z,56
2017-09-13T04:56:27.670Z,60
2017-09-13T04:57:27.688Z,72
2017-09-13T04:58:28.029Z,76
2017-09-13T04:59:27.396Z,84
2017-09-13T05:00:27.435Z,96
2017-09-13T05:01:27.757Z,108
2017-09-13T05:02:27.470Z,120
2017-09-13T05:03:28.120Z,132
2017-09-13T05:04:28.142Z,132
2017-09-13T05:05:28.159Z,128
2017-09-13T05:06:27.532Z,116
2017-09-13T05:07:27.550Z,104
2017-09-13T05:08:27.568Z,96
2017-09-13T05:09:27.265Z,104
2017-09-13T05:10:27.946Z,132
2017-09-13T05:11:28.153Z,148
2017-09-13T05:12:28.131Z,152
2017-09-13T05:13:27.758Z,132
2017-09-13T05:14:27.846Z,112
2017-09-13T05:15:28.392Z,96
2017-09-13T05:16:28.365Z,96
2017-09-13T05:17:27.850Z,108
2017-09-13T05:18:28.401Z,112
2017-09-13T05:19:28.409Z,108
2017-09-13T05:20:27.810Z,108
2017-09-13T05:21:28.450Z,108
2017-09-13T05:22:28.478Z,128
2017-09-13T05:23:27.848Z,156
2017-09-13T05:24:27.873Z,168
2017-09-13T05:25:29.355Z,140
2017-09-13T05:26:27.957Z,108
2017-09-13T05:27:28.561Z,88
2017-09-13T05:28:28.267Z,60
2017-09-13T05:29:28.282Z,48
2017-09-13T05:30:27.651Z,40
2017-09-13T05:31:28.300Z,52
2017-09-13T05:32:28.773Z,64
2017-09-13T05:33:28.777Z,64
2017-09-13T05:34:28.362Z,60
2017-09-13T05:35:28.420Z,80
2017-09-13T05:36:28.422Z,132
2017-09-13T05:37:28.097Z,176
2017-09-13T05:38:28.112Z,196
2017-09-13T05:39:28.453Z,204
2017-09-13T05:40:28.150Z,204
2017-09-13T05:41:28.830Z,200
2017-09-13T05:42:27.888Z,208
2017-09-13T05:43:28.557Z,236
2017-09-13T05:44:28.227Z,240
2017-09-13T05:45:27.916Z,220
2017-09-13T05:46:28.586Z,216
2017-09-13T05:47:28.600Z,220
2017-09-13T05:48:28.620Z,196
2017-09-13T05:49:28.641Z,212
2017-09-13T05:50:28.658Z,200
2017-09-13T05:51:28.090Z,208
2017-09-13T05:52:28.700Z,236
2017-09-13T05:53:29.040Z,236
2017-09-13T05:54:28.417Z,248
2017-09-13T05:55:29.078Z,320
2017-09-13T05:56:28.790Z,400
2017-09-13T05:57:28.794Z,404
2017-09-13T05:58:28.820Z,376
2017-09-13T05:59:28.504Z,376
2017-09-13T06:00:28.837Z,412
2017-09-13T06:01:28.539Z,492
2017-09-13T06:02:28.876Z,592
2017-09-13T06:03:28.574Z,608
2017-09-13T06:04:28.922Z,528
2017-09-13T06:05:28.611Z,416
2017-09-13T06:06:28.951Z,356
2017-09-13T06:07:29.330Z,296
2017-09-13T06:08:28.666Z,240
2017-09-13T06:09:29.329Z,168
2017-09-13T06:10:29.397Z,116
2017-09-13T06:11:29.052Z,108
2017-09-13T06:12:29.247Z,124
2017-09-13T06:13:28.950Z,156
2017-09-13T06:14:29.583Z,216
2017-09-13T06:15:29.575Z,244
2017-09-13T06:16:29.020Z,252
2017-09-13T06:17:29.249Z,236
2017-09-13T06:18:28.691Z,204
2017-09-13T06:19:29.012Z,192
2017-09-13T06:20:29.230Z,176
2017-09-13T06:21:28.903Z,176
2017-09-13T06:22:29.254Z,152
2017-09-13T06:23:29.584Z,144
2017-09-13T06:24:29.295Z,160
2017-09-13T06:25:30.185Z,192
2017-09-13T06:26:29.013Z,244
2017-09-13T06:27:29.343Z,324
2017-09-13T06:28:29.372Z,428
2017-09-13T06:29:29.706Z,472
2017-09-13T06:30:29.401Z,620
2017-09-13T06:31:29.421Z,500
2017-09-13T06:32:29.443Z,460
2017-09-13T06:33:29.557Z,472
2017-09-13T06:34:29.160Z,512
2017-09-13T06:35:29.601Z,520
2017-09-13T06:36:29.581Z,688
2017-09-13T06:37:29.526Z,764
2017-09-13T06:38:29.544Z,736
2017-09-13T06:39:29.898Z,632
2017-09-13T06:40:29.579Z,648
2017-09-13T06:41:29.716Z,668
2017-09-13T06:42:29.622Z,596
2017-09-13T06:43:29.638Z,556
2017-09-13T06:44:29.650Z,628
2017-09-13T06:45:30.001Z,760
2017-09-13T06:46:29.496Z,812
2017-09-13T06:47:30.151Z,872
2017-09-13T06:48:29.817Z,812
2017-09-13T06:49:29.849Z,588
2017-09-13T06:50:29.858Z,452
2017-09-13T06:51:29.714Z,488
2017-09-13T06:52:29.568Z,624
2017-09-13T06:53:29.499Z,896
2017-09-13T06:54:29.518Z,960
2017-09-13T06:55:29.533Z,1148
2017-09-13T06:56:30.548Z,1384
2017-09-13T06:57:30.592Z,1516
2017-09-13T06:58:30.412Z,1172
2017-09-13T06:59:30.410Z,972
2017-09-13T07:00:29.776Z,936
2017-09-13T07:01:29.326Z,592
2017-09-13T07:02:30.413Z,504
2017-09-13T07:03:29.772Z,500
2017-09-13T07:04:30.420Z,676
2017-09-13T07:05:30.458Z,968
2017-09-13T07:06:30.271Z,1208
2017-09-13T07:07:29.833Z,904
2017-09-13T07:08:30.158Z,684
2017-09-13T07:09:30.483Z,564
2017-09-13T07:10:29.845Z,492
2017-09-13T07:11:30.521Z,456
2017-09-13T07:12:30.530Z,556
2017-09-13T07:13:30.204Z,592
2017-09-13T07:14:30.229Z,812
2017-09-13T07:15:30.244Z,860
2017-09-13T07:16:30.578Z,928
2017-09-13T07:17:30.275Z,808
2017-09-13T07:18:30.619Z,868
2017-09-13T07:19:30.313Z,844
2017-09-13T07:20:29.775Z,832
2017-09-13T07:21:30.418Z,756
2017-09-13T07:22:29.829Z,876
2017-09-13T07:23:30.146Z,996
2017-09-13T07:24:30.409Z,912
2017-09-13T07:25:30.749Z,756
2017-09-13T07:26:30.442Z,656
2017-09-13T07:27:30.796Z,520
2017-09-13T07:28:30.170Z,444
2017-09-13T07:29:30.816Z,484
2017-09-13T07:30:30.520Z,680
2017-09-13T07:31:29.960Z,744
2017-09-13T07:32:30.887Z,664
2017-09-13T07:33:30.600Z,700
2017-09-13T07:34:30.646Z,752
2017-09-13T07:35:30.297Z,776
2017-09-13T07:36:30.636Z,776
2017-09-13T07:37:30.330Z,628
2017-09-13T07:38:30.992Z,592
2017-09-13T07:39:30.695Z,704
2017-09-13T07:40:30.718Z,696
2017-09-13T07:41:30.408Z,584
2017-09-13T07:42:30.423Z,604
2017-09-13T07:43:30.770Z,544
2017-09-13T07:44:31.126Z,572
2017-09-13T07:45:30.803Z,576
2017-09-13T07:46:30.496Z,512
2017-09-13T07:47:30.194Z,584
2017-09-13T07:48:30.862Z,676
2017-09-13T07:49:30.233Z,784
2017-09-13T07:50:30.571Z,940
2017-09-13T07:51:30.590Z,740
2017-09-13T07:52:30.933Z,796
2017-09-13T07:53:31.281Z,700
2017-09-13T07:54:31.018Z,736
2017-09-13T07:55:31.328Z,684
2017-09-13T07:56:31.342Z,736
2017-09-13T07:57:30.710Z,740
2017-09-13T07:58:30.729Z,480
2017-09-13T07:59:30.436Z,404
2017-09-13T08:00:30.784Z,528
2017-09-13T08:01:31.121Z,744
2017-09-13T08:02:31.141Z,644
2017-09-13T08:03:31.462Z,872
2017-09-13T08:04:31.488Z,1012
2017-09-13T08:05:30.865Z,772
2017-09-13T08:06:30.557Z,604
2017-09-13T08:07:30.897Z,616
2017-09-13T08:08:31.236Z,684
2017-09-13T08:09:30.956Z,720
2017-09-13T08:10:31.603Z,808
2017-09-13T08:11:31.623Z,680
2017-09-13T08:12:30.991Z,868
2017-09-13T08:13:31.338Z,1008
2017-09-13T08:14:31.032Z,1040
2017-09-13T08:15:31.378Z,840
2017-09-13T08:16:30.765Z,868
2017-09-13T08:17:31.728Z,640
2017-09-13T08:18:31.748Z,832
2017-09-13T08:19:31.775Z,888
2017-09-13T08:20:31.790Z,1112
2017-09-13T08:21:30.836Z,768
2017-09-13T08:22:31.181Z,756
2017-09-13T08:23:31.521Z,948
2017-09-13T08:24:31.555Z,732
2017-09-13T08:25:31.566Z,728
2017-09-13T08:26:31.900Z,820
2017-09-13T08:27:31.605Z,744
2017-09-13T08:28:31.626Z,604
2017-09-13T08:29:30.993Z,620
2017-09-13T08:30:31.661Z,636
2017-09-13T08:31:31.355Z,736
2017-09-13T08:32:32.069Z,892
2017-09-13T08:33:31.395Z,1140
2017-09-13T08:34:31.744Z,1204
2017-09-13T08:35:31.886Z,1392
2017-09-13T08:36:31.562Z,1200
2017-09-13T08:37:31.890Z,1056
2017-09-13T08:38:31.909Z,1040
2017-09-13T08:39:31.184Z,1212
2017-09-13T08:40:31.522Z,1328
2017-09-13T08:41:32.237Z,1044
2017-09-13T08:42:31.916Z,944
2017-09-13T08:43:32.226Z,988
2017-09-13T08:44:31.603Z,1032
2017-09-13T08:45:31.300Z,1060
2017-09-13T08:46:31.961Z,1420
2017-09-13T08:47:31.658Z,1188
2017-09-13T08:48:31.677Z,1556
2017-09-13T08:49:31.509Z,1516
2017-09-13T08:50:31.810Z,1816
2017-09-13T08:51:32.468Z,1728
2017-09-13T08:52:32.498Z,1336
2017-09-13T08:53:32.191Z,1352
2017-09-13T08:54:31.885Z,1412
2017-09-13T08:55:32.044Z,1544
2017-09-13T08:56:32.489Z,1176
2017-09-13T08:57:32.189Z,2024
2017-09-13T08:58:32.225Z,1396
2017-09-13T08:59:31.894Z,1588
2017-09-13T09:00:31.914Z,1188
2017-09-13T09:01:32.587Z,1648
2017-09-13T09:02:32.596Z,1928
2017-09-13T09:03:32.296Z,2132
2017-09-13T09:04:32.066Z,1764
2017-09-13T09:05:32.650Z,1948
2017-09-13T09:06:32.380Z,1776
2017-09-13T09:07:32.058Z,2024
2017-09-13T09:08:32.385Z,2384
2017-09-13T09:09:31.762Z,2200
2017-09-13T09:10:32.752Z,2192
2017-09-13T09:11:32.457Z,1856
2017-09-13T09:12:32.472Z,2044
2017-09-13T09:13:32.160Z,1772
2017-09-13T09:14:32.507Z,2156
2017-09-13T09:15:32.529Z,2284
2017-09-13T09:16:32.224Z,2068
2017-09-13T09:17:32.240Z,2420
2017-09-13T09:18:32.264Z,2348
2017-09-13T09:19:32.614Z,2420
2017-09-13T09:20:32.788Z,1924
2017-09-13T09:21:33.108Z,768
2017-09-13T09:22:32.333Z,1036
2017-09-13T09:23:32.782Z,2428
2017-09-13T09:24:32.927Z,2636
2017-09-13T09:25:33.237Z,2712
2017-09-13T09:26:32.448Z,2872
2017-09-13T09:27:33.253Z,2936
2017-09-13T09:28:33.248Z,2732
2017-09-13T09:29:32.923Z,2216
2017-09-13T09:30:32.292Z,2256
2017-09-13T09:31:32.930Z,2112
2017-09-13T09:32:32.950Z,2480
2017-09-13T09:33:32.782Z,2128
2017-09-13T09:34:33.003Z,1288
2017-09-13T09:35:33.803Z,1988
2017-09-13T09:36:32.672Z,2900
2017-09-13T09:37:33.105Z,2672
2017-09-13T09:38:32.473Z,2500
2017-09-13T09:39:33.130Z,2004
2017-09-13T09:40:33.017Z,1348
2017-09-13T09:41:33.245Z,1676
2017-09-13T09:42:33.520Z,1832
2017-09-13T09:43:33.395Z,1732
2017-09-13T09:44:32.940Z,1892
2017-09-13T09:45:33.118Z,2496
2017-09-13T09:46:33.664Z,3568
2017-09-13T09:47:33.343Z,3436
2017-09-13T09:48:33.498Z,3388
2017-09-13T09:49:32.973Z,3532
2017-09-13T09:50:33.224Z,3756
2017-09-13T09:51:33.327Z,2752
2017-09-13T09:52:33.006Z,2136
2017-09-13T09:53:33.008Z,1684
2017-09-13T09:54:33.620Z,1392
2017-09-13T09:55:33.335Z,1308
2017-09-13T09:56:33.337Z,1740
2017-09-13T09:57:33.036Z,1216
2017-09-13T09:58:33.383Z,900
2017-09-13T09:59:33.737Z,600
2017-09-13T10:00:33.425Z,652
2017-09-13T10:01:33.127Z,736
2017-09-13T10:02:33.461Z,648
2017-09-13T10:03:33.162Z,844
2017-09-13T10:04:33.825Z,792
2017-09-13T10:05:33.203Z,836
2017-09-13T10:06:33.225Z,568
2017-09-13T10:07:33.241Z,624
2017-09-13T10:08:33.268Z,616
2017-09-13T10:09:33.281Z,748
2017-09-13T10:10:33.629Z,1092
2017-09-13T10:11:33.327Z,852
2017-09-13T10:12:33.348Z,812
2017-09-13T10:13:33.692Z,872
2017-09-13T10:14:34.031Z,1152
2017-09-13T10:15:34.062Z,1200
2017-09-13T10:16:33.753Z,1240
2017-09-13T10:17:33.128Z,1264
2017-09-13T10:18:33.472Z,992
2017-09-13T10:19:33.830Z,684
2017-09-13T10:20:33.840Z,496
2017-09-13T10:21:33.535Z,648
2017-09-13T10:22:33.881Z,664
2017-09-13T10:23:33.904Z,768
2017-09-13T10:24:33.923Z,1060
2017-09-13T10:25:33.620Z,944
2017-09-13T10:26:33.636Z,932
2017-09-13T10:27:33.664Z,1040
2017-09-13T10:28:34.006Z,844
2017-09-13T10:29:34.355Z,660
2017-09-13T10:30:33.723Z,664
2017-09-13T10:31:34.062Z,896
2017-09-13T10:32:34.407Z,912
2017-09-13T10:33:34.108Z,924
2017-09-13T10:34:33.480Z,908
2017-09-13T10:35:34.151Z,928
2017-09-13T10:36:33.851Z,996
2017-09-13T10:37:33.586Z,1200
2017-09-13T10:38:34.218Z,1088
2017-09-13T10:39:34.231Z,1224
2017-09-13T10:40:33.959Z,1764
2017-09-13T10:41:34.276Z,1320
2017-09-13T10:42:34.503Z,2008
2017-09-13T10:43:34.318Z,2144
2017-09-13T10:44:34.353Z,2000
2017-09-13T10:45:34.361Z,1608
2017-09-13T10:46:34.735Z,1156
2017-09-13T10:47:33.759Z,1544
2017-09-13T10:48:34.099Z,1636
2017-09-13T10:49:34.768Z,1872
2017-09-13T10:50:34.150Z,2112
2017-09-13T10:51:34.190Z,2392
2017-09-13T10:52:34.852Z,2948
2017-09-13T10:53:34.207Z,2012
2017-09-13T10:54:34.543Z,1552
2017-09-13T10:55:34.588Z,1212
2017-09-13T10:56:34.305Z,936
2017-09-13T10:57:34.281Z,864
2017-09-13T10:58:34.310Z,1492
2017-09-13T10:59:34.332Z,1288
2017-09-13T11:00:34.357Z,1492
2017-09-13T11:01:35.074Z,1312
2017-09-13T11:02:34.098Z,2156
2017-09-13T11:03:35.195Z,2032
2017-09-13T11:04:34.901Z,1456
2017-09-13T11:05:34.877Z,1292
2017-09-13T11:06:34.914Z,1460
2017-09-13T11:07:34.499Z,1340
2017-09-13T11:08:34.203Z,1888
2017-09-13T11:09:34.874Z,1528
2017-09-13T11:10:34.380Z,1508
2017-09-13T11:11:35.324Z,1648
2017-09-13T11:12:35.031Z,2060
2017-09-13T11:13:35.199Z,1828
2017-09-13T11:14:35.484Z,1608
2017-09-13T11:15:35.203Z,2140
2017-09-13T11:16:35.535Z,1840
2017-09-13T11:17:34.882Z,2928
2017-09-13T11:18:34.893Z,2304
2017-09-13T11:19:35.180Z,3216
2017-09-13T11:20:35.529Z,732
2017-09-13T11:21:35.221Z,1336
2017-09-13T11:22:35.039Z,1180
2017-09-13T11:23:35.259Z,2488
2017-09-13T11:24:35.068Z,2824
2017-09-13T11:25:34.992Z,2452
2017-09-13T11:26:35.562Z,1112
2017-09-13T11:27:35.363Z,1264
2017-09-13T11:28:35.312Z,2100
2017-09-13T11:29:35.308Z,1088
2017-09-13T11:30:35.322Z,1684
2017-09-13T11:31:35.005Z,1392
2017-09-13T11:32:35.375Z,1292
2017-09-13T11:33:35.370Z,1236
2017-09-13T11:34:35.118Z,1228
2017-09-13T11:35:35.804Z,972
2017-09-13T11:36:35.766Z,1200
2017-09-13T11:37:35.779Z,1664
2017-09-13T11:38:35.159Z,1172
2017-09-13T11:39:35.829Z,2020
2017-09-13T11:40:35.861Z,1280
2017-09-13T11:41:35.870Z,2216
2017-09-13T11:42:35.243Z,1996
2017-09-13T11:43:35.270Z,2176
2017-09-13T11:44:35.286Z,1772
2017-09-13T11:45:35.304Z,2596
2017-09-13T11:46:35.333Z,1828
2017-09-13T11:47:35.352Z,1628
2017-09-13T11:48:35.370Z,1300
2017-09-13T11:49:36.042Z,1064
2017-09-13T11:50:35.744Z,2220
2017-09-13T11:51:35.770Z,2116
2017-09-13T11:52:35.134Z,2280
2017-09-13T11:53:36.126Z,1428
2017-09-13T11:54:35.830Z,1232
2017-09-13T11:55:35.197Z,712
2017-09-13T11:56:35.864Z,628
2017-09-13T11:57:35.883Z,700
2017-09-13T11:58:35.919Z,1024
2017-09-13T11:59:35.937Z,1652
2017-09-13T12:00:35.962Z,996
2017-09-13T12:01:36.300Z,868
2017-09-13T12:02:35.997Z,1288
2017-09-13T12:03:36.024Z,1568
2017-09-13T12:04:36.056Z,1444
2017-09-13T12:05:36.071Z,1748
2017-09-13T12:06:35.439Z,1040
2017-09-13T12:07:36.110Z,868
2017-09-13T12:08:36.125Z,696
2017-09-13T12:09:36.478Z,556
2017-09-13T12:10:35.848Z,760
2017-09-13T12:11:36.195Z,1344
2017-09-13T12:12:35.893Z,1268
2017-09-13T12:13:36.238Z,676
2017-09-13T12:14:35.933Z,2072
2017-09-13T12:15:35.961Z,2952
2017-09-13T12:16:36.632Z,2188
2017-09-13T12:17:36.325Z,1372
2017-09-13T12:18:36.346Z,1832
2017-09-13T12:19:36.374Z,1292
2017-09-13T12:20:36.075Z,1456
2017-09-13T12:21:36.420Z,1148
2017-09-13T12:22:36.451Z,1236
2017-09-13T12:23:36.457Z,1568
2017-09-13T12:24:36.486Z,1824
2017-09-13T12:25:36.516Z,2992
2017-09-13T12:26:36.534Z,1852
2017-09-13T12:27:36.873Z,2452
2017-09-13T12:28:36.245Z,2196
2017-09-13T12:29:36.275Z,1788
2017-09-13T12:30:36.048Z,1880
2017-09-13T12:31:36.631Z,2304
2017-09-13T12:32:36.342Z,1660
2017-09-13T12:33:36.030Z,1312
2017-09-13T12:34:36.698Z,1840
2017-09-13T12:35:36.399Z,2064
2017-09-13T12:36:36.417Z,1860
2017-09-13T12:37:36.766Z,2196
2017-09-13T12:38:36.793Z,2860
2017-09-13T12:39:36.490Z,2336
2017-09-13T12:40:36.188Z,2712
2017-09-13T12:41:36.861Z,2792
2017-09-13T12:42:36.876Z,1412
2017-09-13T12:43:37.222Z,1768
2017-09-13T12:44:37.249Z,1124
2017-09-13T12:45:37.275Z,1480
2017-09-13T12:46:36.651Z,1592
2017-09-13T12:47:36.673Z,2216
2017-09-13T12:48:37.020Z,1416
2017-09-13T12:49:37.261Z,1108
2017-09-13T12:50:36.736Z,1420
2017-09-13T12:51:36.775Z,2316
2017-09-13T12:52:37.109Z,1764
2017-09-13T12:53:37.132Z,1640
2017-09-13T12:54:37.150Z,2588
2017-09-13T12:55:37.511Z,2660
2017-09-13T12:56:37.196Z,2304
2017-09-13T12:57:37.535Z,2308
2017-09-13T12:58:37.235Z,2992
2017-09-13T12:59:36.951Z,2660
2017-09-13T13:00:37.286Z,2712
2017-09-13T13:01:37.627Z,2464
2017-09-13T13:02:37.656Z,3032
2017-09-13T13:03:37.351Z,2472
2017-09-13T13:04:37.375Z,2432
2017-09-13T13:05:37.729Z,2376
2017-09-13T13:06:37.417Z,1984
2017-09-13T13:07:37.435Z,2648
2017-09-13T13:08:37.146Z,2816
2017-09-13T13:09:37.812Z,2188
2017-09-13T13:10:37.520Z,2140
2017-09-13T13:11:37.425Z,2068
2017-09-13T13:12:37.561Z,1712
2017-09-13T13:13:37.257Z,1952
2017-09-13T13:14:37.601Z,1516
2017-09-13T13:15:37.954Z,1508
2017-09-13T13:16:37.661Z,1444
2017-09-13T13:17:38.000Z,1060
2017-09-13T13:18:38.016Z,896
2017-09-13T13:19:37.394Z,492
2017-09-13T13:20:37.749Z,540
2017-09-13T13:21:37.781Z,360
2017-09-13T13:22:37.794Z,476
2017-09-13T13:23:37.837Z,868
2017-09-13T13:24:37.514Z,872
2017-09-13T13:25:37.545Z,900
2017-09-13T13:26:37.561Z,776
2017-09-13T13:27:37.582Z,496
2017-09-13T13:28:37.609Z,364
2017-09-13T13:29:37.625Z,444
2017-09-13T13:30:38.304Z,708
2017-09-13T13:31:37.703Z,716
2017-09-13T13:32:37.695Z,724
2017-09-13T13:33:38.042Z,736
2017-09-13T13:34:37.743Z,720
2017-09-13T13:35:37.444Z,600
2017-09-13T13:36:37.788Z,312
2017-09-13T13:37:37.490Z,376
2017-09-13T13:38:38.502Z,676
2017-09-13T13:39:37.536Z,1708
2017-09-13T13:40:38.533Z,1168
2017-09-13T13:41:38.241Z,796
2017-09-13T13:42:37.927Z,640
2017-09-13T13:43:37.956Z,524
2017-09-13T13:44:38.295Z,560
2017-09-13T13:45:38.322Z,464
2017-09-13T13:46:38.346Z,600
2017-09-13T13:47:38.368Z,472
2017-09-13T13:48:38.385Z,672
2017-09-13T13:49:38.090Z,780
2017-09-13T13:50:38.435Z,664
2017-09-13T13:51:38.464Z,620
2017-09-13T13:52:38.865Z,688
2017-09-13T13:53:38.873Z,432
2017-09-13T13:54:38.204Z,600
2017-09-13T13:55:38.935Z,764
2017-09-13T13:56:38.572Z,692
2017-09-13T13:57:38.594Z,672